aviador You're here:

LKCV Decoded Metar

CASLAV in CZECH REPUBLIC
Report Time2017-10-22 17:00:00
UTC Time2017-10-22 17:20:54
Flight Rules vfr VFR
Wind210° at 06 kt
W.Decomp.*RWY 14: 2.3 kt HW 5.5 kt RCW
W.Rank210° ranks 20
Current wind is above 210° avg. (5.2)
Visibility9999 m
Phenomena:N/A
Clouds:Scattered 040 Hf
Broken 050 Hf
Broken 140 Hf
Expected CloudBase > 1,200 ft AGL from Temp-Dew spread
Ceiling5,000 ft
Temp10°C (ISA -3)
Dew Point07°C (82% RH)
AAT7.2°C
QNH1014 hPa
Density Alt489 ft
Elevation794 ft
Report Wrong Elevation
Raw Report
LKCV 221700Z 21006KT 9999 SCT040 BKN050 BKN140 10/07 Q1014 NOSIG
RMK BLU BLU=

Extra information for LKCV:More info

Metar Taf Metar & Taf Last 4 Metars F.Rules Stats Wind Profile Meteogram Temp Stats Airport Information Weather charts Add Link Nearby VenuesMetar ALERT Operation Metar Decoded Social comments